sensor_id;sensor_type;location;lat;lon;timestamp;pressure;altitude;pressure_sealevel;temperature;humidity
11198;BME280;5655;48.744;9.162;2023-02-22T00:00:37;96062.59;;;10.76;100.00
11198;BME280;5655;48.744;9.162;2023-02-22T00:03:22;96061.00;;;10.68;100.00
11198;BME280;5655;48.744;9.162;2023-02-22T00:05:50;96067.81;;;10.62;100.00
11198;BME280;5655;48.744;9.162;2023-02-22T00:08:20;96061.03;;;10.75;100.00
11198;BME280;5655;48.744;9.162;2023-02-22T00:10:45;96065.44;;;10.54;100.00
11198;BME280;5655;48.744;9.162;2023-02-22T00:13:13;96064.53;;;10.35;100.00
11198;BME280;5655;48.744;9.162;2023-02-22T00:15:39;96060.09;;;10.13;100.00
11198;BME280;5655;48.744;9.162;2023-02-22T00:18:11;96060.00;;;10.39;100.00
11198;BME280;5655;48.744;9.162;2023-02-22T00:20:37;96057.66;;;10.34;100.00
11198;BME280;5655;48.744;9.162;2023-02-22T00:23:08;96053.09;;;10.38;100.00
11198;BME280;5655;48.744;9.162;2023-02-22T00:25:34;96053.84;;;10.35;100.00
11198;BME280;5655;48.744;9.162;2023-02-22T00:28:00;96052.22;;;10.27;100.00
11198;BME280;5655;48.744;9.162;2023-02-22T00:30:28;96051.53;;;10.34;100.00
11198;BME280;5655;48.744;9.162;2023-02-22T00:32:55;96049.16;;;10.25;100.00
11198;BME280;5655;48.744;9.162;2023-02-22T00:35:24;96048.19;;;10.44;100.00
11198;BME280;5655;48.744;9.162;2023-02-22T00:37:51;96044.38;;;10.08;100.00
11198;BME280;5655;48.744;9.162;2023-02-22T00:40:20;96050.00;;;10.36;100.00
11198;BME280;5655;48.744;9.162;2023-02-22T00:42:46;96049.47;;;10.20;100.00
11198;BME280;5655;48.744;9.162;2023-02-22T00:45:14;96054.50;;;10.25;100.00
11198;BME280;5655;48.744;9.162;2023-02-22T00:47:40;96035.31;;;10.16;100.00
11198;BME280;5655;48.744;9.162;2023-02-22T00:50:05;96043.81;;;10.25;100.00
11198;BME280;5655;48.744;9.162;2023-02-22T00:52:30;96043.78;;;10.22;100.00
11198;BME280;5655;48.744;9.162;2023-02-22T00:54:56;96038.53;;;10.36;100.00
11198;BME280;5655;48.744;9.162;2023-02-22T00:57:22;96041.59;;;10.34;100.00
11198;BME280;5655;48.744;9.162;2023-02-22T00:59:48;96031.13;;;10.63;100.00
11198;BME280;5655;48.744;9.162;2023-02-22T01:02:13;96030.94;;;10.38;100.00
11198;BME280;5655;48.744;9.162;2023-02-22T01:04:38;96034.56;;;10.19;100.00
11198;BME280;5655;48.744;9.162;2023-02-22T01:07:04;96032.16;;;10.11;100.00
11198;BME280;5655;48.744;9.162;2023-02-22T01:09:30;96030.34;;;10.18;100.00
11198;BME280;5655;48.744;9.162;2023-02-22T01:11:55;96018.97;;;10.28;100.00
11198;BME280;5655;48.744;9.162;2023-02-22T01:14:24;96026.22;;;10.24;100.00
11198;BME280;5655;48.744;9.162;2023-02-22T01:16:54;96026.34;;;10.38;100.00
11198;BME280;5655;48.744;9.162;2023-02-22T01:19:21;96020.75;;;10.14;100.00
11198;BME280;5655;48.744;9.162;2023-02-22T01:21:48;95982.19;;;10.18;100.00
11198;BME280;5655;48.744;9.162;2023-02-22T01:24:14;96014.47;;;10.36;100.00
11198;BME280;5655;48.744;9.162;2023-02-22T01:26:41;96014.47;;;10.36;100.00
11198;BME280;5655;48.744;9.162;2023-02-22T01:29:07;96016.31;;;10.28;100.00
11198;BME280;5655;48.744;9.162;2023-02-22T01:31:32;96009.59;;;10.08;100.00
11198;BME280;5655;48.744;9.162;2023-02-22T01:33:58;96023.53;;;10.24;100.00
11198;BME280;5655;48.744;9.162;2023-02-22T01:36:23;96011.72;;;9.58;100.00
11198;BME280;5655;48.744;9.162;2023-02-22T01:38:48;96003.38;;;9.60;100.00
11198;BME280;5655;48.744;9.162;2023-02-22T01:41:14;96004.28;;;10.12;100.00
11198;BME280;5655;48.744;9.162;2023-02-22T01:43:42;96003.13;;;10.09;100.00
11198;BME280;5655;48.744;9.162;2023-02-22T01:48:51;95990.09;;;10.04;100.00
11198;BME280;5655;48.744;9.162;2023-02-22T01:51:21;95992.50;;;10.16;100.00
11198;BME280;5655;48.744;9.162;2023-02-22T01:53:53;95987.00;;;10.02;100.00
11198;BME280;5655;48.744;9.162;2023-02-22T01:56:21;95983.31;;;10.14;100.00
11198;BME280;5655;48.744;9.162;2023-02-22T01:59:08;95982.00;;;10.37;100.00
11198;BME280;5655;48.744;9.162;2023-02-22T02:01:35;95979.72;;;10.39;100.00
11198;BME280;5655;48.744;9.162;2023-02-22T02:04:07;95978.81;;;10.21;100.00
11198;BME280;5655;48.744;9.162;2023-02-22T02:06:34;95970.97;;;10.02;100.00
11198;BME280;5655;48.744;9.162;2023-02-22T02:11:35;95970.53;;;9.96;100.00
11198;BME280;5655;48.744;9.162;2023-02-22T02:14:01;95966.25;;;9.88;100.00
11198;BME280;5655;48.744;9.162;2023-02-22T02:16:49;95970.19;;;10.01;100.00
11198;BME280;5655;48.744;9.162;2023-02-22T02:33:30;95947.00;;;9.35;100.00
11198;BME280;5655;48.744;9.162;2023-02-22T02:36:00;95945.97;;;8.84;100.00
11198;BME280;5655;48.744;9.162;2023-02-22T02:39:05;95939.72;;;9.02;100.00
11198;BME280;5655;48.744;9.162;2023-02-22T02:41:38;95934.66;;;8.94;100.00
11198;BME280;5655;48.744;9.162;2023-02-22T02:44:12;95944.41;;;8.83;100.00
11198;BME280;5655;48.744;9.162;2023-02-22T02:46:49;95934.28;;;8.65;100.00
11198;BME280;5655;48.744;9.162;2023-02-22T02:49:21;95929.13;;;8.80;100.00
11198;BME280;5655;48.744;9.162;2023-02-22T02:51:51;95921.44;;;8.75;100.00
11198;BME280;5655;48.744;9.162;2023-02-22T02:54:18;95920.00;;;8.54;100.00
11198;BME280;5655;48.744;9.162;2023-02-22T02:56:45;95929.56;;;8.55;100.00
11198;BME280;5655;48.744;9.162;2023-02-22T02:59:32;95919.09;;;8.70;100.00
11198;BME280;5655;48.744;9.162;2023-02-22T03:07:57;95906.25;;;8.79;100.00
11198;BME280;5655;48.744;9.162;2023-02-22T03:10:42;95906.06;;;8.64;100.00
11198;BME280;5655;48.744;9.162;2023-02-22T03:13:20;95903.41;;;8.38;100.00
11198;BME280;5655;48.744;9.162;2023-02-22T03:18:27;95905.81;;;8.47;100.00
11198;BME280;5655;48.744;9.162;2023-02-22T03:23:47;95896.00;;;8.54;100.00
11198;BME280;5655;48.744;9.162;2023-02-22T03:26:20;95890.50;;;8.40;100.00
11198;BME280;5655;48.744;9.162;2023-02-22T03:28:50;95898.06;;;8.38;100.00
11198;BME280;5655;48.744;9.162;2023-02-22T03:31:24;95880.97;;;8.16;100.00
11198;BME280;5655;48.744;9.162;2023-02-22T03:33:55;95884.91;;;8.26;100.00
11198;BME280;5655;48.744;9.162;2023-02-22T03:36:27;95886.34;;;8.20;100.00
11198;BME280;5655;48.744;9.162;2023-02-22T03:38:56;95887.41;;;8.38;100.00
11198;BME280;5655;48.744;9.162;2023-02-22T03:41:23;95888.75;;;8.29;100.00
11198;BME280;5655;48.744;9.162;2023-02-22T03:43:58;95889.53;;;8.29;100.00
11198;BME280;5655;48.744;9.162;2023-02-22T03:46:26;95881.22;;;8.08;100.00
11198;BME280;5655;48.744;9.162;2023-02-22T03:49:05;95884.22;;;8.29;100.00
11198;BME280;5655;48.744;9.162;2023-02-22T03:51:33;95872.50;;;8.11;100.00
11198;BME280;5655;48.744;9.162;2023-02-22T03:53:59;95887.47;;;7.93;100.00
11198;BME280;5655;48.744;9.162;2023-02-22T03:56:30;95886.84;;;8.03;100.00
11198;BME280;5655;48.744;9.162;2023-02-22T03:59:02;95889.69;;;7.91;100.00
11198;BME280;5655;48.744;9.162;2023-02-22T04:01:29;95889.97;;;8.08;100.00
11198;BME280;5655;48.744;9.162;2023-02-22T04:03:54;95892.78;;;7.93;100.00
11198;BME280;5655;48.744;9.162;2023-02-22T04:06:19;95889.59;;;7.84;100.00
11198;BME280;5655;48.744;9.162;2023-02-22T04:08:44;95895.56;;;7.77;100.00
11198;BME280;5655;48.744;9.162;2023-02-22T04:11:10;95883.00;;;7.78;100.00
11198;BME280;5655;48.744;9.162;2023-02-22T04:13:35;95884.97;;;7.58;100.00
11198;BME280;5655;48.744;9.162;2023-02-22T04:16:00;95877.75;;;7.58;100.00
11198;BME280;5655;48.744;9.162;2023-02-22T04:18:26;95886.13;;;7.60;100.00
11198;BME280;5655;48.744;9.162;2023-02-22T04:20:51;95876.22;;;7.57;100.00
11198;BME280;5655;48.744;9.162;2023-02-22T04:23:16;95876.66;;;7.40;100.00
11198;BME280;5655;48.744;9.162;2023-02-22T04:25:42;95870.03;;;7.99;100.00
11198;BME280;5655;48.744;9.162;2023-02-22T04:28:07;95870.78;;;8.48;100.00
11198;BME280;5655;48.744;9.162;2023-02-22T04:30:32;95874.19;;;8.45;100.00
11198;BME280;5655;48.744;9.162;2023-02-22T04:32:58;95872.38;;;8.04;100.00
11198;BME280;5655;48.744;9.162;2023-02-22T04:35:23;95880.97;;;7.67;100.00
11198;BME280;5655;48.744;9.162;2023-02-22T04:37:48;95869.94;;;7.46;100.00
11198;BME280;5655;48.744;9.162;2023-02-22T04:40:15;95876.00;;;7.47;100.00
11198;BME280;5655;48.744;9.162;2023-02-22T04:42:41;95872.91;;;7.22;100.00
11198;BME280;5655;48.744;9.162;2023-02-22T04:45:07;95872.91;;;7.22;100.00
11198;BME280;5655;48.744;9.162;2023-02-22T04:47:34;95872.28;;;7.09;100.00
11198;BME280;5655;48.744;9.162;2023-02-22T04:49:59;95871.53;;;6.90;100.00
11198;BME280;5655;48.744;9.162;2023-02-22T04:52:25;95876.16;;;6.93;100.00
11198;BME280;5655;48.744;9.162;2023-02-22T04:54:50;95864.25;;;6.87;100.00
11198;BME280;5655;48.744;9.162;2023-02-22T04:57:16;95869.56;;;6.87;100.00
11198;BME280;5655;48.744;9.162;2023-02-22T04:59:41;95866.06;;;6.63;100.00
11198;BME280;5655;48.744;9.162;2023-02-22T05:02:06;95855.91;;;6.50;100.00
11198;BME280;5655;48.744;9.162;2023-02-22T05:04:32;95859.66;;;6.64;100.00
11198;BME280;5655;48.744;9.162;2023-02-22T05:06:57;95858.97;;;6.52;100.00
11198;BME280;5655;48.744;9.162;2023-02-22T05:09:22;95853.31;;;6.53;100.00
11198;BME280;5655;48.744;9.162;2023-02-22T05:11:48;95857.72;;;6.46;100.00
11198;BME280;5655;48.744;9.162;2023-02-22T05:14:13;95858.97;;;6.52;100.00
11198;BME280;5655;48.744;9.162;2023-02-22T05:16:38;95859.13;;;6.59;100.00
11198;BME280;5655;48.744;9.162;2023-02-22T05:19:04;95855.44;;;6.63;100.00
11198;BME280;5655;48.744;9.162;2023-02-22T05:21:29;95860.19;;;6.73;100.00
11198;BME280;5655;48.744;9.162;2023-02-22T05:23:54;95861.66;;;6.71;100.00
11198;BME280;5655;48.744;9.162;2023-02-22T05:26:20;95855.97;;;6.53;100.00
11198;BME280;5655;48.744;9.162;2023-02-22T05:28:45;95847.16;;;6.49;100.00
11198;BME280;5655;48.744;9.162;2023-02-22T05:31:10;95854.94;;;6.58;100.00
11198;BME280;5655;48.744;9.162;2023-02-22T05:33:36;95848.28;;;6.87;100.00
11198;BME280;5655;48.744;9.162;2023-02-22T05:36:04;95845.63;;;6.48;100.00
11198;BME280;5655;48.744;9.162;2023-02-22T05:38:29;95836.94;;;6.32;100.00
11198;BME280;5655;48.744;9.162;2023-02-22T05:40:54;95833.84;;;6.30;100.00
11198;BME280;5655;48.744;9.162;2023-02-22T05:43:21;95837.63;;;6.48;100.00
11198;BME280;5655;48.744;9.162;2023-02-22T05:45:46;95839.25;;;6.53;100.00
11198;BME280;5655;48.744;9.162;2023-02-22T05:48:11;95830.81;;;6.47;100.00
11198;BME280;5655;48.744;9.162;2023-02-22T05:50:37;95840.22;;;6.45;100.00
11198;BME280;5655;48.744;9.162;2023-02-22T05:53:02;95837.81;;;6.55;100.00
11198;BME280;5655;48.744;9.162;2023-02-22T05:55:29;95844.44;;;6.46;100.00
11198;BME280;5655;48.744;9.162;2023-02-22T05:57:55;95835.97;;;6.40;100.00
11198;BME280;5655;48.744;9.162;2023-02-22T06:00:29;95829.25;;;6.46;100.00
11198;BME280;5655;48.744;9.162;2023-02-22T06:03:02;95824.34;;;6.48;100.00
11198;BME280;5655;48.744;9.162;2023-02-22T06:05:28;95823.50;;;6.25;100.00
11198;BME280;5655;48.744;9.162;2023-02-22T06:07:54;95831.28;;;6.33;100.00
11198;BME280;5655;48.744;9.162;2023-02-22T06:10:20;95827.13;;;6.36;100.00
11198;BME280;5655;48.744;9.162;2023-02-22T06:12:47;95813.78;;;6.32;100.00
11198;BME280;5655;48.744;9.162;2023-02-22T06:15:14;95829.19;;;6.62;100.00
11198;BME280;5655;48.744;9.162;2023-02-22T06:17:40;95830.66;;;6.59;100.00
11198;BME280;5655;48.744;9.162;2023-02-22T06:20:07;95827.00;;;6.48;100.00
11198;BME280;5655;48.744;9.162;2023-02-22T06:22:33;95825.63;;;6.54;100.00
11198;BME280;5655;48.744;9.162;2023-02-22T06:24:58;95838.47;;;6.52;100.00
11198;BME280;5655;48.744;9.162;2023-02-22T06:27:23;95834.09;;;6.60;100.00
11198;BME280;5655;48.744;9.162;2023-02-22T06:29:49;95843.78;;;6.33;100.00
11198;BME280;5655;48.744;9.162;2023-02-22T06:32:14;95830.13;;;6.34;100.00
11198;BME280;5655;48.744;9.162;2023-02-22T06:34:39;95836.63;;;6.18;100.00
11198;BME280;5655;48.744;9.162;2023-02-22T06:37:05;95833.59;;;6.54;100.00
11198;BME280;5655;48.744;9.162;2023-02-22T06:39:31;95839.31;;;6.37;100.00
11198;BME280;5655;48.744;9.162;2023-02-22T06:41:56;95834.13;;;6.44;100.00
11198;BME280;5655;48.744;9.162;2023-02-22T06:44:23;95847.16;;;6.49;100.00
11198;BME280;5655;48.744;9.162;2023-02-22T06:46:49;95839.88;;;6.65;100.00
11198;BME280;5655;48.744;9.162;2023-02-22T06:49:19;95848.50;;;6.78;100.00
11198;BME280;5655;48.744;9.162;2023-02-22T06:51:44;95849.00;;;6.83;100.00
11198;BME280;5655;48.744;9.162;2023-02-22T06:54:10;95848.56;;;7.01;100.00
11198;BME280;5655;48.744;9.162;2023-02-22T06:56:36;95861.38;;;7.14;100.00
11198;BME280;5655;48.744;9.162;2023-02-22T06:59:01;95858.06;;;7.21;100.00
11198;BME280;5655;48.744;9.162;2023-02-22T07:01:27;95860.44;;;7.26;100.00
11198;BME280;5655;48.744;9.162;2023-02-22T07:03:52;95861.41;;;7.37;100.00
11198;BME280;5655;48.744;9.162;2023-02-22T07:06:18;95861.59;;;7.48;100.00
11198;BME280;5655;48.744;9.162;2023-02-22T07:08:43;95865.06;;;7.52;100.00
11198;BME280;5655;48.744;9.162;2023-02-22T07:11:08;95865.81;;;7.71;100.00
11198;BME280;5655;48.744;9.162;2023-02-22T07:13:34;95866.63;;;7.75;100.00
11198;BME280;5655;48.744;9.162;2023-02-22T07:15:59;95865.38;;;7.92;100.00
11198;BME280;5655;48.744;9.162;2023-02-22T07:18:24;95862.72;;;8.18;100.00
11198;BME280;5655;48.744;9.162;2023-02-22T07:20:50;95861.41;;;8.32;100.00
11198;BME280;5655;48.744;9.162;2023-02-22T07:23:16;95872.34;;;8.49;100.00
11198;BME280;5655;48.744;9.162;2023-02-22T07:25:42;95879.25;;;8.54;100.00
11198;BME280;5655;48.744;9.162;2023-02-22T07:28:07;95868.34;;;8.66;100.00
11198;BME280;5655;48.744;9.162;2023-02-22T07:30:35;95871.16;;;8.77;100.00
11198;BME280;5655;48.744;9.162;2023-02-22T07:33:03;95880.50;;;8.93;100.00
11198;BME280;5655;48.744;9.162;2023-02-22T07:35:30;95874.44;;;8.96;100.00
11198;BME280;5655;48.744;9.162;2023-02-22T07:37:56;95875.47;;;9.18;100.00
11198;BME280;5655;48.744;9.162;2023-02-22T07:40:23;95877.66;;;9.09;100.00
11198;BME280;5655;48.744;9.162;2023-02-22T07:45:38;95884.88;;;9.45;100.00
11198;BME280;5655;48.744;9.162;2023-02-22T07:48:04;95881.03;;;9.39;100.00
11198;BME280;5655;48.744;9.162;2023-02-22T07:50:31;95889.16;;;9.53;100.00
11198;BME280;5655;48.744;9.162;2023-02-22T07:52:58;95881.03;;;9.39;100.00
11198;BME280;5655;48.744;9.162;2023-02-22T07:55:26;95886.72;;;9.75;100.00
11198;BME280;5655;48.744;9.162;2023-02-22T07:57:54;95884.97;;;9.52;100.00
11198;BME280;5655;48.744;9.162;2023-02-22T08:00:28;95885.84;;;9.64;100.00
11198;BME280;5655;48.744;9.162;2023-02-22T08:02:53;95884.56;;;9.91;100.00
11198;BME280;5655;48.744;9.162;2023-02-22T08:05:20;95883.69;;;10.24;100.00
11198;BME280;5655;48.744;9.162;2023-02-22T08:07:47;95884.91;;;10.33;100.00
11198;BME280;5655;48.744;9.162;2023-02-22T08:10:14;95887.69;;;10.48;100.00
11198;BME280;5655;48.744;9.162;2023-02-22T08:12:39;95885.13;;;10.65;100.00
11198;BME280;5655;48.744;9.162;2023-02-22T08:15:07;95879.09;;;10.86;100.00
11198;BME280;5655;48.744;9.162;2023-02-22T08:17:32;95879.50;;;10.95;100.00
11198;BME280;5655;48.744;9.162;2023-02-22T08:19:58;95875.81;;;10.48;100.00
11198;BME280;5655;48.744;9.162;2023-02-22T08:22:23;95875.91;;;10.63;100.00
11198;BME280;5655;48.744;9.162;2023-02-22T08:24:51;95878.13;;;10.46;100.00
11198;BME280;5655;48.744;9.162;2023-02-22T08:27:25;95879.00;;;10.72;100.00
11198;BME280;5655;48.744;9.162;2023-02-22T08:29:51;95877.44;;;10.64;100.00
11198;BME280;5655;48.744;9.162;2023-02-22T08:32:16;95873.88;;;11.28;100.00
11198;BME280;5655;48.744;9.162;2023-02-22T08:34:42;95873.94;;;11.57;100.00
11198;BME280;5655;48.744;9.162;2023-02-22T08:37:08;95888.00;;;11.18;100.00
11198;BME280;5655;48.744;9.162;2023-02-22T08:39:33;95875.31;;;11.01;100.00
11198;BME280;5655;48.744;9.162;2023-02-22T08:41:58;95879.91;;;10.97;100.00
11198;BME280;5655;48.744;9.162;2023-02-22T08:44:24;95885.78;;;11.34;100.00
11198;BME280;5655;48.744;9.162;2023-02-22T08:46:49;95879.38;;;11.78;100.00
11198;BME280;5655;48.744;9.162;2023-02-22T08:49:16;95878.63;;;11.88;100.00
11198;BME280;5655;48.744;9.162;2023-02-22T08:51:41;95876.31;;;12.29;100.00
11198;BME280;5655;48.744;9.162;2023-02-22T08:54:06;95877.84;;;12.26;100.00
11198;BME280;5655;48.744;9.162;2023-02-22T08:56:31;95878.59;;;12.31;100.00
11198;BME280;5655;48.744;9.162;2023-02-22T08:58:57;95879.34;;;12.63;100.00
11198;BME280;5655;48.744;9.162;2023-02-22T09:01:23;95877.44;;;12.39;100.00
11198;BME280;5655;48.744;9.162;2023-02-22T09:03:49;95877.84;;;12.30;100.00
11198;BME280;5655;48.744;9.162;2023-02-22T09:06:14;95878.22;;;12.36;100.00
11198;BME280;5655;48.744;9.162;2023-02-22T09:08:40;95881.69;;;12.47;100.00
11198;BME280;5655;48.744;9.162;2023-02-22T09:11:05;95873.97;;;12.52;100.00
11198;BME280;5655;48.744;9.162;2023-02-22T09:13:31;95870.88;;;12.68;100.00
11198;BME280;5655;48.744;9.162;2023-02-22T09:15:57;95869.34;;;12.67;100.00
11198;BME280;5655;48.744;9.162;2023-02-22T09:18:22;95874.22;;;13.00;100.00
11198;BME280;5655;48.744;9.162;2023-02-22T09:20:47;95869.19;;;13.09;100.00
11198;BME280;5655;48.744;9.162;2023-02-22T09:23:13;95879.25;;;12.98;100.00
11198;BME280;5655;48.744;9.162;2023-02-22T09:25:38;95875.66;;;13.30;100.00
11198;BME280;5655;48.744;9.162;2023-02-22T09:28:05;95879.97;;;13.82;100.00
11198;BME280;5655;48.744;9.162;2023-02-22T09:30:35;95878.91;;;13.69;100.00
11198;BME280;5655;48.744;9.162;2023-02-22T09:33:09;95875.84;;;13.67;100.00
11198;BME280;5655;48.744;9.162;2023-02-22T09:35:37;95869.84;;;13.38;100.00
11198;BME280;5655;48.744;9.162;2023-02-22T09:38:07;95867.75;;;12.94;100.00
11198;BME280;5655;48.744;9.162;2023-02-22T09:40:35;95878.13;;;12.78;100.00
11198;BME280;5655;48.744;9.162;2023-02-22T09:45:36;95876.56;;;12.91;100.00
11198;BME280;5655;48.744;9.162;2023-02-22T09:48:05;95869.16;;;13.27;100.00
11198;BME280;5655;48.744;9.162;2023-02-22T09:50:36;95870.00;;;13.79;100.00
11198;BME280;5655;48.744;9.162;2023-02-22T09:53:31;95868.25;;;13.51;100.00
11198;BME280;5655;48.744;9.162;2023-02-22T09:56:20;95868.44;;;13.20;100.00
11198;BME280;5655;48.744;9.162;2023-02-22T09:58:50;95873.19;;;13.60;100.00
11198;BME280;5655;48.744;9.162;2023-02-22T10:01:54;95876.31;;;14.06;100.00
11198;BME280;5655;48.744;9.162;2023-02-22T10:09:22;95881.47;;;14.38;100.00
11198;BME280;5655;48.744;9.162;2023-02-22T10:11:59;95869.28;;;14.20;100.00
11198;BME280;5655;48.744;9.162;2023-02-22T10:17:47;95876.22;;;14.65;100.00
11198;BME280;5655;48.744;9.162;2023-02-22T10:25:35;95868.66;;;14.53;100.00
11198;BME280;5655;48.744;9.162;2023-02-22T10:28:21;95861.56;;;15.04;100.00
11198;BME280;5655;48.744;9.162;2023-02-22T10:30:51;95862.16;;;15.45;100.00
11198;BME280;5655;48.744;9.162;2023-02-22T10:33:26;95859.06;;;15.47;100.00
11198;BME280;5655;48.744;9.162;2023-02-22T10:35:54;95864.47;;;15.47;100.00
11198;BME280;5655;48.744;9.162;2023-02-22T10:38:29;95850.44;;;15.85;100.00
11198;BME280;5655;48.744;9.162;2023-02-22T10:40:59;95857.38;;;15.86;100.00
11198;BME280;5655;48.744;9.162;2023-02-22T10:43:26;95849.34;;;15.56;100.00
11198;BME280;5655;48.744;9.162;2023-02-22T10:45:54;95847.34;;;15.60;100.00
11198;BME280;5655;48.744;9.162;2023-02-22T10:48:22;95847.41;;;15.26;100.00
11198;BME280;5655;48.744;9.162;2023-02-22T10:50:50;95847.00;;;15.58;100.00
11198;BME280;5655;48.744;9.162;2023-02-22T10:53:17;95855.34;;;15.07;100.00
11198;BME280;5655;48.744;9.162;2023-02-22T10:56:08;95845.16;;;15.78;100.00
11198;BME280;5655;48.744;9.162;2023-02-22T10:58:45;95842.13;;;16.23;100.00
11198;BME280;5655;48.744;9.162;2023-02-22T11:01:20;95839.19;;;16.14;100.00
11198;BME280;5655;48.744;9.162;2023-02-22T11:03:56;95838.91;;;16.08;100.00
11198;BME280;5655;48.744;9.162;2023-02-22T11:06:22;95844.00;;;16.03;100.00
11198;BME280;5655;48.744;9.162;2023-02-22T11:08:47;95840.88;;;15.54;100.00
11198;BME280;5655;48.744;9.162;2023-02-22T11:11:23;95829.31;;;15.80;100.00
11198;BME280;5655;48.744;9.162;2023-02-22T11:13:54;95841.91;;;15.91;100.00
11198;BME280;5655;48.744;9.162;2023-02-22T11:16:31;95839.44;;;16.00;100.00
11198;BME280;5655;48.744;9.162;2023-02-22T11:19:00;95832.63;;;16.38;100.00
11198;BME280;5655;48.744;9.162;2023-02-22T11:21:26;95831.22;;;16.07;100.00
11198;BME280;5655;48.744;9.162;2023-02-22T11:24:01;95829.56;;;15.89;100.00
11198;BME280;5655;48.744;9.162;2023-02-22T11:26:28;95830.19;;;15.47;100.00
11198;BME280;5655;48.744;9.162;2023-02-22T11:29:09;95822.59;;;16.15;100.00
11198;BME280;5655;48.744;9.162;2023-02-22T11:31:41;95820.16;;;16.44;100.00
11198;BME280;5655;48.744;9.162;2023-02-22T11:34:24;95815.75;;;15.87;100.00
11198;BME280;5655;48.744;9.162;2023-02-22T11:36:50;95820.78;;;16.09;100.00
11198;BME280;5655;48.744;9.162;2023-02-22T11:39:30;95813.94;;;16.01;100.00
11198;BME280;5655;48.744;9.162;2023-02-22T11:42:17;95808.97;;;16.65;100.00
11198;BME280;5655;48.744;9.162;2023-02-22T11:44:44;95807.53;;;16.18;100.00
11198;BME280;5655;48.744;9.162;2023-02-22T11:47:10;95808.91;;;16.26;100.00
11198;BME280;5655;48.744;9.162;2023-02-22T11:49:38;95804.81;;;16.18;100.00
11198;BME280;5655;48.744;9.162;2023-02-22T12:05:57;95786.75;;;16.58;100.00
11198;BME280;5655;48.744;9.162;2023-02-22T12:19:36;95773.50;;;16.63;100.00
11198;BME280;5655;48.744;9.162;2023-02-22T12:22:20;95776.16;;;16.24;100.00
11198;BME280;5655;48.744;9.162;2023-02-22T12:24:59;95773.91;;;16.42;100.00
11198;BME280;5655;48.744;9.162;2023-02-22T12:27:34;95774.09;;;17.10;100.00
11198;BME280;5655;48.744;9.162;2023-02-22T12:30:06;95770.19;;;16.75;100.00
11198;BME280;5655;48.744;9.162;2023-02-22T12:32:40;95769.53;;;16.48;100.00
11198;BME280;5655;48.744;9.162;2023-02-22T12:35:20;95766.88;;;16.68;100.00
11198;BME280;5655;48.744;9.162;2023-02-22T12:46:10;95762.75;;;16.99;100.00
11198;BME280;5655;48.744;9.162;2023-02-22T12:59:18;95755.91;;;16.95;100.00
11198;BME280;5655;48.744;9.162;2023-02-22T13:01:53;95761.91;;;17.02;100.00
11198;BME280;5655;48.744;9.162;2023-02-22T13:04:19;95759.81;;;17.10;100.00
11198;BME280;5655;48.744;9.162;2023-02-22T13:12:10;95759.03;;;17.45;100.00
11198;BME280;5655;48.744;9.162;2023-02-22T13:20:29;95756.19;;;17.85;100.00
11198;BME280;5655;48.744;9.162;2023-02-22T13:26:46;95746.00;;;19.04;100.00
11198;BME280;5655;48.744;9.162;2023-02-22T13:28:50;95742.53;;;19.16;100.00
11198;BME280;5655;48.744;9.162;2023-02-22T13:41:10;95740.28;;;18.61;100.00
11198;BME280;5655;48.744;9.162;2023-02-22T13:43:49;95746.97;;;18.85;100.00
11198;BME280;5655;48.744;9.162;2023-02-22T13:49:09;95740.84;;;18.39;100.00
11198;BME280;5655;48.744;9.162;2023-02-22T13:54:16;95745.34;;;17.85;100.00
11198;BME280;5655;48.744;9.162;2023-02-22T13:56:45;95745.59;;;17.74;100.00
11198;BME280;5655;48.744;9.162;2023-02-22T13:59:34;95748.22;;;17.61;100.00
11198;BME280;5655;48.744;9.162;2023-02-22T14:02:01;95741.13;;;17.67;100.00
11198;BME280;5655;48.744;9.162;2023-02-22T14:04:38;95743.59;;;17.26;100.00
11198;BME280;5655;48.744;9.162;2023-02-22T14:09:53;95734.63;;;16.77;100.00
11198;BME280;5655;48.744;9.162;2023-02-22T14:18:20;95734.97;;;16.99;100.00
11198;BME280;5655;48.744;9.162;2023-02-22T14:20:26;95740.16;;;16.90;100.00
11198;BME280;5655;48.744;9.162;2023-02-22T14:22:57;95737.91;;;17.04;100.00
11198;BME280;5655;48.744;9.162;2023-02-22T14:25:42;95740.03;;;17.13;100.00
11198;BME280;5655;48.744;9.162;2023-02-22T14:31:14;95739.34;;;16.73;100.00
11198;BME280;5655;48.744;9.162;2023-02-22T14:39:21;95740.94;;;16.70;100.00
11198;BME280;5655;48.744;9.162;2023-02-22T14:47:27;95739.69;;;16.75;100.00
11198;BME280;5655;48.744;9.162;2023-02-22T14:50:02;95735.00;;;16.59;100.00
11198;BME280;5655;48.744;9.162;2023-02-22T14:52:30;95733.03;;;16.79;100.00
11198;BME280;5655;48.744;9.162;2023-02-22T14:57:45;95734.44;;;16.05;100.00
11198;BME280;5655;48.744;9.162;2023-02-22T15:00:21;95733.41;;;16.19;100.00
11198;BME280;5655;48.744;9.162;2023-02-22T15:02:56;95734.34;;;16.32;100.00
11198;BME280;5655;48.744;9.162;2023-02-22T15:05:24;95737.03;;;16.12;100.00
11198;BME280;5655;48.744;9.162;2023-02-22T15:07:59;95727.06;;;16.29;100.00
11198;BME280;5655;48.744;9.162;2023-02-22T15:13:03;95730.81;;;16.35;100.00
11198;BME280;5655;48.744;9.162;2023-02-22T15:15:40;95736.03;;;16.03;100.00
11198;BME280;5655;48.744;9.162;2023-02-22T15:18:28;95731.47;;;16.00;100.00
11198;BME280;5655;48.744;9.162;2023-02-22T15:21:01;95731.00;;;16.05;100.00
11198;BME280;5655;48.744;9.162;2023-02-22T15:23:29;95731.25;;;16.10;100.00
11198;BME280;5655;48.744;9.162;2023-02-22T15:26:03;95734.25;;;16.16;100.00
11198;BME280;5655;48.744;9.162;2023-02-22T15:28:28;95729.94;;;15.75;100.00
11198;BME280;5655;48.744;9.162;2023-02-22T15:31:34;95731.97;;;16.14;100.00
11198;BME280;5655;48.744;9.162;2023-02-22T15:36:42;95732.53;;;15.82;100.00
11198;BME280;5655;48.744;9.162;2023-02-22T15:39:18;95733.16;;;15.90;100.00
11198;BME280;5655;48.744;9.162;2023-02-22T15:41:44;95733.25;;;15.86;100.00
11198;BME280;5655;48.744;9.162;2023-02-22T15:44:10;95739.31;;;15.67;100.00
11198;BME280;5655;48.744;9.162;2023-02-22T15:46:38;95740.38;;;15.50;100.00
11198;BME280;5655;48.744;9.162;2023-02-22T15:51:37;95732.91;;;15.61;100.00